createdAt,value
2018-12-05T00:00:49.337Z,77.28
2018-12-05T00:03:16.756Z,78.12
2018-12-05T00:05:44.189Z,77.36
2018-12-05T00:08:11.623Z,77.56
2018-12-05T00:10:39.152Z,77.60
2018-12-05T00:13:06.581Z,78.15
2018-12-05T00:15:34.072Z,78.18
2018-12-05T00:18:01.497Z,78.69
2018-12-05T00:20:28.928Z,78.18
2018-12-05T00:22:56.360Z,78.51
2018-12-05T00:25:23.779Z,78.47
2018-12-05T00:27:51.214Z,77.99
2018-12-05T00:30:18.643Z,77.17
2018-12-05T00:32:46.061Z,78.00
2018-12-05T00:35:13.480Z,78.65
2018-12-05T00:37:40.914Z,78.20
2018-12-05T00:40:08.444Z,78.64
2018-12-05T00:42:35.877Z,78.96
2018-12-05T00:45:03.388Z,79.29
2018-12-05T00:47:31.080Z,80.04
2018-12-05T00:49:58.516Z,80.54
2018-12-05T00:52:26.031Z,81.06
2018-12-05T00:54:53.494Z,80.98
2018-12-05T00:57:20.919Z,81.43
2018-12-05T00:59:48.412Z,80.58
2018-12-05T01:02:15.861Z,81.16
2018-12-05T01:04:43.303Z,80.16
2018-12-05T01:07:10.779Z,81.63
2018-12-05T01:09:40.680Z,80.88
2018-12-05T01:12:08.269Z,80.79
2018-12-05T01:14:35.781Z,81.14
2018-12-05T01:17:03.199Z,81.06
2018-12-05T01:19:30.725Z,81.62
2018-12-05T01:21:58.155Z,81.87
2018-12-05T01:24:25.586Z,81.39
2018-12-05T01:26:53.000Z,81.72
2018-12-05T01:29:20.432Z,81.92
2018-12-05T01:34:22.454Z,81.63
2018-12-05T01:36:49.874Z,81.60
2018-12-05T01:39:17.365Z,82.04
2018-12-05T01:41:44.811Z,82.85
2018-12-05T01:44:12.252Z,82.43
2018-12-05T01:46:39.671Z,82.40
2018-12-05T01:49:07.135Z,82.00
2018-12-05T01:51:34.596Z,82.96
2018-12-05T01:54:02.027Z,83.39
2018-12-05T01:56:29.457Z,83.97
2018-12-05T01:58:56.879Z,82.18
2018-12-05T02:01:24.316Z,82.53
2018-12-05T02:03:51.806Z,82.32
2018-12-05T02:06:19.304Z,83.21
2018-12-05T02:08:46.720Z,83.52
2018-12-05T02:11:14.160Z,83.71
2018-12-05T02:13:41.583Z,83.43
2018-12-05T02:16:09.012Z,82.91
2018-12-05T02:18:36.445Z,83.39
2018-12-05T02:21:03.923Z,83.34
2018-12-05T02:23:31.342Z,83.22
2018-12-05T02:25:58.773Z,83.53
2018-12-05T02:28:26.200Z,83.10
2018-12-05T02:30:53.632Z,83.45
2018-12-05T02:33:21.061Z,83.77
2018-12-05T02:35:48.573Z,85.00
2018-12-05T02:38:16.032Z,84.33
2018-12-05T02:40:43.469Z,83.78
2018-12-05T02:43:10.949Z,84.38
2018-12-05T02:45:38.401Z,84.05
2018-12-05T02:48:05.922Z,84.48
2018-12-05T02:50:33.427Z,85.23
2018-12-05T02:53:00.896Z,84.70
2018-12-05T02:55:28.340Z,84.22
2018-12-05T02:57:55.923Z,85.17
2018-12-05T03:00:23.339Z,85.03
2018-12-05T03:02:50.768Z,84.84
2018-12-05T03:05:18.265Z,84.89
2018-12-05T03:07:45.697Z,84.29
2018-12-05T03:10:13.133Z,85.04
2018-12-05T03:12:40.570Z,85.85
2018-12-05T03:15:07.990Z,85.37
2018-12-05T03:17:35.423Z,85.15
2018-12-05T03:20:02.860Z,85.31
2018-12-05T03:22:30.295Z,84.31
2018-12-05T03:24:57.729Z,85.00
2018-12-05T03:27:25.159Z,84.35
2018-12-05T03:29:52.582Z,84.04
2018-12-05T03:32:20.018Z,84.42
2018-12-05T03:34:47.523Z,85.47
2018-12-05T03:37:14.964Z,84.76
2018-12-05T03:39:42.404Z,85.78
2018-12-05T03:42:09.829Z,85.31
2018-12-05T03:44:37.263Z,85.02
2018-12-05T03:47:04.977Z,85.59
2018-12-05T03:49:32.479Z,85.51
2018-12-05T03:51:59.962Z,85.68
2018-12-05T03:54:27.471Z,84.73
2018-12-05T03:56:55.081Z,85.55
2018-12-05T03:59:22.543Z,85.30
2018-12-05T04:01:49.976Z,85.94
2018-12-05T04:04:17.416Z,85.86
2018-12-05T04:06:44.851Z,86.14
2018-12-05T04:09:12.276Z,86.96
2018-12-05T04:11:39.723Z,86.53
2018-12-05T04:14:07.230Z,87.03
2018-12-05T04:16:35.248Z,86.10
2018-12-05T04:19:02.685Z,86.34
2018-12-05T04:21:30.276Z,85.80
2018-12-05T04:23:58.211Z,86.34
2018-12-05T04:26:25.645Z,85.59
2018-12-05T04:28:53.104Z,86.35
2018-12-05T04:31:20.539Z,87.23
2018-12-05T04:33:47.959Z,86.67
2018-12-05T04:36:15.429Z,86.58
2018-12-05T04:38:42.920Z,86.43
2018-12-05T04:41:10.350Z,86.97
2018-12-05T04:43:37.780Z,87.01
2018-12-05T04:46:05.228Z,87.02
2018-12-05T04:48:32.875Z,86.92
2018-12-05T04:51:00.374Z,86.97
2018-12-05T04:53:27.795Z,87.29
2018-12-05T04:55:55.287Z,87.45
2018-12-05T04:58:22.847Z,87.77
2018-12-05T05:00:50.292Z,87.50
2018-12-05T05:03:18.171Z,88.10
2018-12-05T05:05:45.632Z,87.87
2018-12-05T05:08:13.059Z,88.40
2018-12-05T05:10:40.549Z,88.50
2018-12-05T05:13:08.050Z,88.35
2018-12-05T05:15:35.564Z,87.76
2018-12-05T05:18:03.035Z,87.70
2018-12-05T05:20:30.463Z,88.25
2018-12-05T05:22:57.916Z,87.18
2018-12-05T05:25:25.391Z,87.36
2018-12-05T05:27:52.835Z,87.62
2018-12-05T05:30:20.257Z,87.08
2018-12-05T05:32:51.885Z,88.18
2018-12-05T05:35:19.327Z,87.77
2018-12-05T05:37:46.759Z,86.93
2018-12-05T05:40:14.401Z,87.02
2018-12-05T05:42:41.791Z,87.10
2018-12-05T05:45:09.254Z,87.70
2018-12-05T05:47:36.709Z,87.67
2018-12-05T05:50:04.615Z,88.24
2018-12-05T05:52:32.053Z,88.28
2018-12-05T05:54:59.489Z,88.77
2018-12-05T05:57:26.955Z,88.40
2018-12-05T05:59:54.398Z,87.70
2018-12-05T06:02:21.834Z,87.76
2018-12-05T06:04:49.260Z,88.47
2018-12-05T06:07:16.789Z,87.25
2018-12-05T06:09:44.248Z,87.34
2018-12-05T06:12:11.703Z,87.82
2018-12-05T06:14:39.133Z,88.38
2018-12-05T06:17:06.555Z,88.71
2018-12-05T06:19:34.138Z,87.77
2018-12-05T06:22:01.605Z,88.06
2018-12-05T06:24:30.828Z,87.57
2018-12-05T06:26:58.430Z,88.38
2018-12-05T06:29:25.950Z,88.44
2018-12-05T06:31:53.403Z,87.84
2018-12-05T06:34:20.873Z,88.02
2018-12-05T06:36:48.309Z,87.36
2018-12-05T06:39:15.748Z,87.31
2018-12-05T06:41:43.264Z,87.05
2018-12-05T06:44:10.687Z,86.32
2018-12-05T06:46:38.123Z,86.10
2018-12-05T06:49:05.567Z,86.07
2018-12-05T06:51:33.079Z,86.26
2018-12-05T06:54:00.524Z,86.27
2018-12-05T06:56:27.957Z,87.12
2018-12-05T06:58:55.757Z,85.86
2018-12-05T07:01:23.312Z,85.73
2018-12-05T07:03:50.750Z,85.80
2018-12-05T07:06:18.191Z,85.46
2018-12-05T07:08:45.686Z,85.98
2018-12-05T07:11:13.116Z,85.82
2018-12-05T07:13:40.592Z,86.19
2018-12-05T07:16:08.015Z,86.02
2018-12-05T07:18:35.511Z,85.66
2018-12-05T07:21:02.964Z,85.62
2018-12-05T07:23:30.426Z,85.04
2018-12-05T07:25:57.861Z,85.46
2018-12-05T07:28:25.344Z,86.25
2018-12-05T07:30:52.771Z,86.23
2018-12-05T07:33:20.219Z,85.85
2018-12-05T07:35:47.659Z,85.75
2018-12-05T07:38:19.425Z,86.67
2018-12-05T07:40:44.831Z,86.02
2018-12-05T07:43:12.271Z,85.91
2018-12-05T07:45:39.710Z,86.16
2018-12-05T07:48:07.151Z,85.27
2018-12-05T07:50:35.263Z,84.30
2018-12-05T07:53:02.692Z,84.37
2018-12-05T07:55:30.119Z,84.88
2018-12-05T07:57:57.553Z,83.36
2018-12-05T08:00:25.003Z,84.12
2018-12-05T08:02:52.514Z,82.97
2018-12-05T08:05:19.940Z,83.68
2018-12-05T08:07:47.431Z,83.23
2018-12-05T08:10:14.866Z,83.47
2018-12-05T08:12:42.308Z,82.45
2018-12-05T08:15:10.094Z,82.74
2018-12-05T08:17:37.532Z,83.01
2018-12-05T08:20:05.022Z,83.20
2018-12-05T08:22:32.470Z,82.41
2018-12-05T08:24:59.906Z,81.89
2018-12-05T08:27:27.340Z,80.99
2018-12-05T08:29:54.783Z,81.25
2018-12-05T08:32:22.237Z,81.26
2018-12-05T08:34:49.651Z,81.07
2018-12-05T08:37:17.648Z,80.53
2018-12-05T08:39:45.071Z,80.69
2018-12-05T08:42:13.257Z,79.59
2018-12-05T08:44:40.728Z,80.00
2018-12-05T08:47:08.168Z,80.06
2018-12-05T08:49:35.606Z,79.33
2018-12-05T08:52:03.030Z,79.05
2018-12-05T08:54:30.455Z,78.77
2018-12-05T08:56:57.918Z,78.46
2018-12-05T08:59:25.352Z,78.66
2018-12-05T09:01:52.823Z,78.28
2018-12-05T09:04:20.282Z,77.42
2018-12-05T09:06:47.735Z,77.37
2018-12-05T09:09:16.084Z,77.38
2018-12-05T09:11:43.692Z,77.10
2018-12-05T09:14:11.121Z,76.91
2018-12-05T09:16:38.552Z,76.60
2018-12-05T09:19:06.161Z,77.01
2018-12-05T09:21:33.609Z,76.20
2018-12-05T09:24:01.032Z,76.04
2018-12-05T09:26:29.244Z,75.04
2018-12-05T09:28:57.308Z,74.61
2018-12-05T09:31:24.880Z,75.11
2018-12-05T09:33:52.344Z,74.02
2018-12-05T09:36:19.773Z,74.02
2018-12-05T09:38:47.210Z,73.52
2018-12-05T09:41:14.622Z,73.72
2018-12-05T09:43:42.048Z,73.25
2018-12-05T09:46:09.652Z,73.08
2018-12-05T09:48:37.184Z,72.87
2018-12-05T09:51:04.624Z,72.35
2018-12-05T09:53:32.070Z,72.69
2018-12-05T09:55:59.542Z,72.22
2018-12-05T09:58:27.008Z,72.52
2018-12-05T10:00:54.439Z,72.20
2018-12-05T10:03:21.876Z,70.93
2018-12-05T10:05:49.307Z,71.38
2018-12-05T10:08:16.741Z,71.35
2018-12-05T10:10:44.150Z,70.64
2018-12-05T10:13:11.833Z,71.12
2018-12-05T10:15:39.424Z,70.84
2018-12-05T10:18:06.839Z,70.24
2018-12-05T10:20:34.316Z,70.35
2018-12-05T10:23:01.757Z,70.23
2018-12-05T10:25:29.243Z,70.42
2018-12-05T10:27:56.686Z,70.45
2018-12-05T10:30:24.119Z,68.80
2018-12-05T10:32:51.549Z,69.64
2018-12-05T10:35:18.971Z,69.55
2018-12-05T10:37:46.406Z,69.24
2018-12-05T10:40:13.894Z,69.39
2018-12-05T10:42:41.314Z,68.66
2018-12-05T10:45:08.748Z,68.35
2018-12-05T10:47:36.163Z,67.83
2018-12-05T10:50:03.605Z,67.88
2018-12-05T10:52:31.035Z,67.76
2018-12-05T10:54:58.541Z,68.88
2018-12-05T10:57:26.639Z,67.61
2018-12-05T10:59:54.168Z,67.28
2018-12-05T11:02:26.899Z,67.83
2018-12-05T11:04:59.695Z,67.95
2018-12-05T11:07:32.553Z,67.14
2018-12-05T11:10:05.452Z,67.36
2018-12-05T11:12:38.335Z,66.76
2018-12-05T11:15:11.146Z,66.32
2018-12-05T11:17:44.557Z,66.68
2018-12-05T11:20:17.522Z,66.21
2018-12-05T11:22:50.275Z,65.89
2018-12-05T11:25:19.000Z,65.81
2018-12-05T11:27:46.445Z,66.20
2018-12-05T11:30:13.911Z,66.02
2018-12-05T11:32:41.380Z,66.50
2018-12-05T11:35:08.808Z,65.91
2018-12-05T11:37:36.228Z,66.41
2018-12-05T11:40:03.656Z,65.36
2018-12-05T11:42:31.127Z,65.54
2018-12-05T11:44:58.569Z,65.94
2018-12-05T11:47:26.049Z,65.72
2018-12-05T11:49:53.467Z,65.67
2018-12-05T11:52:20.908Z,65.71
2018-12-05T11:54:48.347Z,65.50
2018-12-05T11:57:16.471Z,65.75
2018-12-05T11:59:43.899Z,65.73
2018-12-05T12:02:11.321Z,66.10
2018-12-05T12:04:38.767Z,65.60
2018-12-05T12:07:06.189Z,65.92
2018-12-05T12:09:33.608Z,64.84
2018-12-05T12:12:01.037Z,64.95
2018-12-05T12:14:28.531Z,64.50
2018-12-05T12:16:56.040Z,65.23
2018-12-05T12:19:23.463Z,64.77
2018-12-05T12:21:50.968Z,64.07
2018-12-05T12:24:18.577Z,64.00
2018-12-05T12:26:46.088Z,63.86
2018-12-05T12:29:13.532Z,62.98
2018-12-05T12:31:41.026Z,63.88
2018-12-05T12:34:08.549Z,64.39
2018-12-05T12:36:36.013Z,64.73
2018-12-05T12:39:04.186Z,64.92
2018-12-05T12:41:31.643Z,63.97
2018-12-05T12:43:59.093Z,63.28
2018-12-05T12:46:26.517Z,63.06
2018-12-05T12:48:53.931Z,63.88
2018-12-05T12:51:21.364Z,64.02
2018-12-05T12:53:48.794Z,63.47
2018-12-05T12:56:16.281Z,63.40
2018-12-05T12:58:43.720Z,63.76
2018-12-05T13:01:11.197Z,63.67
2018-12-05T13:03:39.381Z,63.84
2018-12-05T13:06:06.811Z,63.42
2018-12-05T13:08:34.617Z,62.77
2018-12-05T13:11:02.052Z,62.91
2018-12-05T13:13:29.493Z,63.49
2018-12-05T13:15:57.272Z,62.50
2018-12-05T13:18:24.743Z,63.01
2018-12-05T13:20:52.187Z,62.58
2018-12-05T13:23:19.744Z,63.11
2018-12-05T13:25:47.222Z,63.96
2018-12-05T13:28:14.648Z,64.24
2018-12-05T13:30:42.130Z,63.79
2018-12-05T13:33:09.560Z,64.68
2018-12-05T13:35:36.989Z,64.68
2018-12-05T13:38:04.415Z,63.46
2018-12-05T13:40:31.855Z,63.73
2018-12-05T13:42:59.285Z,63.70
2018-12-05T13:45:26.707Z,63.85
2018-12-05T13:47:54.132Z,64.12
2018-12-05T13:50:21.556Z,64.39
2018-12-05T13:52:48.975Z,64.30
2018-12-05T13:55:16.428Z,63.59
2018-12-05T13:57:43.923Z,62.67
2018-12-05T14:00:11.404Z,62.07
2018-12-05T14:02:38.876Z,63.37
2018-12-05T14:05:06.352Z,62.57
2018-12-05T14:07:33.822Z,59.25
2018-12-05T14:10:01.250Z,59.29
2018-12-05T14:12:30.638Z,58.09
2018-12-05T14:14:58.216Z,57.98
2018-12-05T14:17:25.675Z,57.56
2018-12-05T14:19:53.133Z,58.08
2018-12-05T14:22:20.571Z,58.10
2018-12-05T14:24:48.036Z,58.46
2018-12-05T14:27:15.557Z,59.48
2018-12-05T14:29:42.976Z,59.61
2018-12-05T14:32:10.513Z,58.42
2018-12-05T14:34:37.955Z,59.78
2018-12-05T14:37:05.384Z,59.96
2018-12-05T14:39:32.807Z,60.01
2018-12-05T14:42:00.240Z,60.55
2018-12-05T14:44:27.667Z,60.83
2018-12-05T14:46:55.160Z,61.13
2018-12-05T14:49:22.574Z,62.18
2018-12-05T14:51:50.023Z,62.65
2018-12-05T14:54:17.533Z,62.38
2018-12-05T14:56:44.951Z,63.10
2018-12-05T14:59:12.448Z,64.05
2018-12-05T15:01:39.878Z,65.01
2018-12-05T15:04:07.315Z,65.64
2018-12-05T15:06:34.747Z,65.63
2018-12-05T15:09:02.315Z,65.85
2018-12-05T15:11:29.743Z,66.14
2018-12-05T15:13:57.164Z,66.37
2018-12-05T15:16:24.605Z,67.44
2018-12-05T15:18:52.103Z,68.30
2018-12-05T15:21:19.559Z,67.87
2018-12-05T15:23:47.042Z,68.27
2018-12-05T15:26:14.472Z,67.74
2018-12-05T15:28:42.563Z,67.85
2018-12-05T15:31:10.046Z,68.26
2018-12-05T15:33:37.525Z,68.61
2018-12-05T15:36:05.031Z,68.72
2018-12-05T15:38:32.463Z,69.27
2018-12-05T15:40:59.879Z,70.65
2018-12-05T15:43:27.326Z,70.67
2018-12-05T15:45:54.755Z,70.82
2018-12-05T15:48:22.208Z,70.46
2018-12-05T15:50:49.630Z,70.68
2018-12-05T15:53:17.059Z,70.67
2018-12-05T15:55:45.291Z,70.60
2018-12-05T15:58:12.723Z,70.53
2018-12-05T16:00:40.175Z,70.67
2018-12-05T16:03:07.676Z,70.67
2018-12-05T16:05:35.128Z,71.92
2018-12-05T16:08:02.583Z,71.42
2018-12-05T16:10:30.172Z,71.66
2018-12-05T16:12:57.703Z,71.83
2018-12-05T16:15:25.129Z,71.94
2018-12-05T16:17:52.619Z,72.61
2018-12-05T16:20:20.043Z,72.34
2018-12-05T16:22:47.484Z,72.49
2018-12-05T16:25:14.991Z,71.04
2018-12-05T16:27:42.452Z,69.85
2018-12-05T16:30:09.904Z,69.32
2018-12-05T16:32:37.364Z,69.41
2018-12-05T16:35:04.791Z,69.09
2018-12-05T16:37:32.228Z,66.76
2018-12-05T16:39:59.660Z,67.22
2018-12-05T16:42:27.144Z,66.81
2018-12-05T16:44:54.661Z,66.37
2018-12-05T16:47:22.196Z,65.98
2018-12-05T16:49:49.687Z,65.92
2018-12-05T16:52:17.232Z,66.92
2018-12-05T16:54:44.712Z,66.50
2018-12-05T16:57:12.143Z,67.42
2018-12-05T16:59:39.599Z,67.12
2018-12-05T17:02:07.032Z,66.71
2018-12-05T17:04:34.448Z,66.91
2018-12-05T17:07:01.976Z,66.78
2018-12-05T17:09:29.413Z,67.23
2018-12-05T17:11:56.840Z,66.77
2018-12-05T17:14:24.928Z,67.05
2018-12-05T17:16:52.430Z,66.26
2018-12-05T17:19:20.407Z,66.53
2018-12-05T17:21:47.833Z,67.59
2018-12-05T17:24:15.275Z,68.16
2018-12-05T17:26:42.705Z,67.87
2018-12-05T17:29:10.217Z,67.60
2018-12-05T17:31:37.655Z,67.44
2018-12-05T17:34:05.118Z,67.20
2018-12-05T17:36:32.510Z,66.63
2018-12-05T17:39:00.163Z,66.68
2018-12-05T17:41:27.589Z,68.77
2018-12-05T17:43:55.072Z,69.40
2018-12-05T17:46:22.504Z,68.46
2018-12-05T17:48:49.988Z,68.76
2018-12-05T17:51:17.411Z,68.66
2018-12-05T17:53:44.899Z,69.63
2018-12-05T17:56:12.323Z,68.42
2018-12-05T17:58:39.816Z,68.96
2018-12-05T18:01:07.247Z,70.18
2018-12-05T18:03:34.693Z,70.21
2018-12-05T18:06:02.129Z,69.98
2018-12-05T18:08:29.626Z,69.10
2018-12-05T18:10:57.112Z,68.79
2018-12-05T18:13:24.539Z,67.62
2018-12-05T18:15:52.021Z,67.82
2018-12-05T18:18:19.475Z,67.46
2018-12-05T18:20:47.436Z,68.25
2018-12-05T18:23:14.908Z,68.65
2018-12-05T18:25:42.334Z,68.07
2018-12-05T18:28:09.776Z,68.25
2018-12-05T18:30:37.220Z,68.40
2018-12-05T18:33:04.647Z,68.55
2018-12-05T18:35:32.192Z,68.12
2018-12-05T18:37:59.628Z,68.87
2018-12-05T18:40:27.056Z,68.78
2018-12-05T18:42:54.564Z,69.05
2018-12-05T18:45:22.019Z,69.12
2018-12-05T18:47:49.576Z,69.26
2018-12-05T18:50:17.008Z,70.22
2018-12-05T18:52:44.447Z,69.80
2018-12-05T18:55:11.876Z,69.58
2018-12-05T18:57:39.318Z,69.43
2018-12-05T19:00:07.100Z,69.26
2018-12-05T19:02:34.531Z,69.46
2018-12-05T19:05:01.985Z,69.86
2018-12-05T19:07:29.403Z,70.13
2018-12-05T19:09:56.888Z,70.38
2018-12-05T19:12:25.204Z,69.58
2018-12-05T19:14:52.649Z,69.66
2018-12-05T19:17:20.110Z,69.92
2018-12-05T19:19:47.560Z,70.01
2018-12-05T19:22:14.988Z,70.58
2018-12-05T19:24:42.467Z,69.75
2018-12-05T19:27:09.912Z,69.68
2018-12-05T19:29:37.424Z,70.41
2018-12-05T19:32:04.860Z,70.94
2018-12-05T19:34:32.292Z,70.19
2018-12-05T19:36:59.751Z,70.65
2018-12-05T19:39:27.211Z,70.46
2018-12-05T19:41:54.640Z,70.95
2018-12-05T19:44:22.075Z,71.01
2018-12-05T19:46:49.587Z,72.04
2018-12-05T19:49:17.025Z,71.79
2018-12-05T19:51:45.341Z,71.70
2018-12-05T19:54:12.780Z,71.72
2018-12-05T19:56:40.216Z,71.24
2018-12-05T19:59:08.231Z,72.48
2018-12-05T20:01:35.688Z,71.97
2018-12-05T20:04:03.120Z,72.25
2018-12-05T20:06:30.560Z,72.29
2018-12-05T20:08:57.991Z,72.35
2018-12-05T20:11:25.429Z,72.23
2018-12-05T20:13:52.956Z,72.21
2018-12-05T20:16:20.388Z,72.51
2018-12-05T20:18:47.826Z,72.87
2018-12-05T20:21:15.262Z,72.32
2018-12-05T20:23:42.757Z,72.82
2018-12-05T20:26:10.179Z,73.01
2018-12-05T20:28:37.694Z,73.01
2018-12-05T20:31:05.132Z,73.30
2018-12-05T20:33:32.557Z,73.07
2018-12-05T20:36:00.675Z,73.25
2018-12-05T20:38:28.252Z,73.13
2018-12-05T20:40:56.037Z,73.16
2018-12-05T20:43:23.568Z,73.50
2018-12-05T20:45:51.029Z,73.62
2018-12-05T20:48:18.524Z,73.44
2018-12-05T20:50:45.956Z,73.37
2018-12-05T20:53:13.855Z,73.50
2018-12-05T20:55:41.300Z,73.79
2018-12-05T20:58:09.288Z,73.97
2018-12-05T21:00:36.801Z,73.96
2018-12-05T21:03:04.228Z,73.37
2018-12-05T21:05:31.747Z,73.21
2018-12-05T21:07:59.167Z,73.92
2018-12-05T21:10:26.639Z,73.65
2018-12-05T21:12:54.065Z,73.44
2018-12-05T21:15:21.539Z,73.11
2018-12-05T21:17:48.960Z,73.56
2018-12-05T21:20:16.388Z,73.52
2018-12-05T21:22:47.094Z,73.20
2018-12-05T21:25:13.221Z,73.56
2018-12-05T21:27:41.009Z,73.00
2018-12-05T21:30:08.543Z,73.25
2018-12-05T21:32:36.275Z,73.52
2018-12-05T21:35:03.708Z,73.25
2018-12-05T21:37:31.656Z,72.90
2018-12-05T21:39:59.087Z,73.09
2018-12-05T21:42:26.566Z,72.98
2018-12-05T21:44:54.013Z,72.86
2018-12-05T21:47:21.464Z,73.26
2018-12-05T21:49:48.901Z,72.70
2018-12-05T21:52:16.323Z,73.18
2018-12-05T21:54:43.757Z,72.95
2018-12-05T21:57:11.193Z,73.22
2018-12-05T21:59:38.624Z,72.76
2018-12-05T22:02:06.635Z,72.92
2018-12-05T22:04:34.063Z,73.15
2018-12-05T22:07:01.780Z,72.84
2018-12-05T22:09:29.299Z,72.88
2018-12-05T22:11:56.753Z,73.27
2018-12-05T22:14:24.213Z,72.94
2018-12-05T22:16:51.643Z,73.16
2018-12-05T22:19:19.090Z,73.91
2018-12-05T22:21:46.524Z,73.62
2018-12-05T22:24:14.055Z,73.48
2018-12-05T22:26:41.496Z,73.75
2018-12-05T22:29:08.960Z,73.52
2018-12-05T22:31:36.409Z,73.00
2018-12-05T22:34:04.011Z,73.00
2018-12-05T22:36:31.537Z,73.16
2018-12-05T22:38:59.003Z,72.56
2018-12-05T22:41:26.456Z,73.53
2018-12-05T22:43:53.904Z,73.28
2018-12-05T22:46:21.342Z,72.30
2018-12-05T22:48:49.576Z,72.66
2018-12-05T22:51:17.219Z,72.35
2018-12-05T22:53:44.658Z,72.78
2018-12-05T22:56:12.117Z,72.57
2018-12-05T22:58:39.571Z,72.88
2018-12-05T23:01:07.000Z,72.10
2018-12-05T23:03:34.447Z,72.33
2018-12-05T23:06:01.949Z,72.46
2018-12-05T23:08:29.543Z,72.55
2018-12-05T23:10:56.963Z,72.33
2018-12-05T23:13:24.828Z,72.22
2018-12-05T23:15:52.408Z,71.78
2018-12-05T23:18:19.844Z,71.73
2018-12-05T23:20:47.305Z,71.15
2018-12-05T23:23:14.764Z,71.20
2018-12-05T23:25:42.196Z,70.97
2018-12-05T23:28:09.619Z,70.36
2018-12-05T23:30:37.047Z,70.06
2018-12-05T23:33:04.468Z,69.73
2018-12-05T23:35:31.924Z,69.20
2018-12-05T23:37:59.558Z,69.07
2018-12-05T23:40:27.071Z,68.15
2018-12-05T23:42:54.747Z,67.97
2018-12-05T23:45:22.425Z,68.37
2018-12-05T23:47:49.843Z,68.09
2018-12-05T23:50:17.283Z,66.69
2018-12-05T23:52:44.707Z,66.54
2018-12-05T23:55:12.186Z,66.37
2018-12-05T23:57:40.531Z,66.57
